Tampa, Florida
Traffic Map
Current Weather Conditions
Tampa, Florida
Broken Clouds
Broken Clouds
25°
Feels Like: 26°
Wind Chill: 25° Ceiling: 3500
Heat Index: 26° Visibility: 10mi
Dew Point: 23° Wind: 5mph
Humidity: 90% Direction: 80° (E)
Pressure: 29.85in Gusts: 0mph
Raw Report DataKTPA 010553Z 08004KT 10SM FEW008 SCT020 BKN035 25/23 A2985 RMK AO2 SLP107 60000 T02500233 10272 20250 58001
Traffic Incident Summary
Active as of:
Severity:
Category:
InformationThere was an issue retrieving the traffic information for this location. Please try a different location or try again shortly.
Advertisements
Track Severe Weather on mobile